sensor_id;sensor_type;location;lat;lon;timestamp;P1;durP1;ratioP1;P2;durP2;ratioP2
64595;SDS011;51003;51.628;6.670;2022-08-01T00:02:00;24.27;;;15.17;;
64595;SDS011;51003;51.628;6.670;2022-08-01T00:04:25;22.60;;;15.00;;
64595;SDS011;51003;51.628;6.670;2022-08-01T00:06:51;23.93;;;16.17;;
64595;SDS011;51003;51.628;6.670;2022-08-01T00:09:16;26.07;;;15.20;;
64595;SDS011;51003;51.628;6.670;2022-08-01T00:11:41;25.80;;;16.17;;
64595;SDS011;51003;51.628;6.670;2022-08-01T00:14:07;24.67;;;15.83;;
64595;SDS011;51003;51.628;6.670;2022-08-01T00:16:34;28.43;;;16.03;;
64595;SDS011;51003;51.628;6.670;2022-08-01T00:19:00;22.93;;;16.40;;
64595;SDS011;51003;51.628;6.670;2022-08-01T00:21:25;26.10;;;15.67;;
64595;SDS011;51003;51.628;6.670;2022-08-01T00:23:50;22.47;;;14.80;;
64595;SDS011;51003;51.628;6.670;2022-08-01T00:26:16;23.80;;;16.03;;
64595;SDS011;51003;51.628;6.670;2022-08-01T00:28:41;20.30;;;14.43;;
64595;SDS011;51003;51.628;6.670;2022-08-01T00:31:07;20.67;;;15.47;;
64595;SDS011;51003;51.628;6.670;2022-08-01T00:33:33;30.13;;;15.50;;
64595;SDS011;51003;51.628;6.670;2022-08-01T00:35:59;28.50;;;15.30;;
64595;SDS011;51003;51.628;6.670;2022-08-01T00:38:24;28.07;;;15.53;;
64595;SDS011;51003;51.628;6.670;2022-08-01T00:40:50;24.63;;;16.13;;
64595;SDS011;51003;51.628;6.670;2022-08-01T00:43:15;23.77;;;15.80;;
64595;SDS011;51003;51.628;6.670;2022-08-01T00:45:41;26.83;;;16.90;;
64595;SDS011;51003;51.628;6.670;2022-08-01T00:48:07;28.03;;;16.47;;
64595;SDS011;51003;51.628;6.670;2022-08-01T00:50:32;46.33;;;19.17;;
64595;SDS011;51003;51.628;6.670;2022-08-01T00:52:58;33.80;;;17.80;;
64595;SDS011;51003;51.628;6.670;2022-08-01T00:55:24;29.53;;;17.57;;
64595;SDS011;51003;51.628;6.670;2022-08-01T00:57:53;28.47;;;18.50;;
64595;SDS011;51003;51.628;6.670;2022-08-01T01:00:19;25.80;;;16.83;;
64595;SDS011;51003;51.628;6.670;2022-08-01T01:02:45;28.40;;;17.27;;
64595;SDS011;51003;51.628;6.670;2022-08-01T01:05:10;27.23;;;16.80;;
64595;SDS011;51003;51.628;6.670;2022-08-01T01:07:44;28.03;;;17.20;;
64595;SDS011;51003;51.628;6.670;2022-08-01T01:12:47;25.87;;;16.30;;
64595;SDS011;51003;51.628;6.670;2022-08-01T01:15:26;32.10;;;16.53;;
64595;SDS011;51003;51.628;6.670;2022-08-01T01:20:32;26.40;;;16.67;;
64595;SDS011;51003;51.628;6.670;2022-08-01T01:29:08;33.03;;;16.97;;
64595;SDS011;51003;51.628;6.670;2022-08-01T01:32:09;29.40;;;16.97;;
64595;SDS011;51003;51.628;6.670;2022-08-01T01:34:40;29.40;;;17.53;;
64595;SDS011;51003;51.628;6.670;2022-08-01T01:37:09;28.13;;;17.23;;
64595;SDS011;51003;51.628;6.670;2022-08-01T01:39:38;29.23;;;16.73;;
64595;SDS011;51003;51.628;6.670;2022-08-01T01:42:06;31.87;;;17.27;;
64595;SDS011;51003;51.628;6.670;2022-08-01T01:44:32;26.20;;;17.20;;
64595;SDS011;51003;51.628;6.670;2022-08-01T01:46:59;29.93;;;17.80;;
64595;SDS011;51003;51.628;6.670;2022-08-01T01:49:25;29.70;;;17.43;;
64595;SDS011;51003;51.628;6.670;2022-08-01T01:51:53;27.83;;;17.53;;
64595;SDS011;51003;51.628;6.670;2022-08-01T01:54:20;27.37;;;15.90;;
64595;SDS011;51003;51.628;6.670;2022-08-01T01:56:47;27.13;;;15.30;;
64595;SDS011;51003;51.628;6.670;2022-08-01T01:59:15;24.60;;;14.60;;
64595;SDS011;51003;51.628;6.670;2022-08-01T02:01:43;29.30;;;15.87;;
64595;SDS011;51003;51.628;6.670;2022-08-01T02:04:09;23.47;;;15.60;;
64595;SDS011;51003;51.628;6.670;2022-08-01T02:06:35;28.80;;;16.53;;
64595;SDS011;51003;51.628;6.670;2022-08-01T02:09:02;31.83;;;16.80;;
64595;SDS011;51003;51.628;6.670;2022-08-01T02:11:28;30.17;;;17.90;;
64595;SDS011;51003;51.628;6.670;2022-08-01T02:13:55;32.37;;;17.10;;
64595;SDS011;51003;51.628;6.670;2022-08-01T02:16:24;33.87;;;18.33;;
64595;SDS011;51003;51.628;6.670;2022-08-01T02:18:51;27.10;;;17.00;;
64595;SDS011;51003;51.628;6.670;2022-08-01T02:21:19;27.97;;;16.50;;
64595;SDS011;51003;51.628;6.670;2022-08-01T02:23:49;28.43;;;16.57;;
64595;SDS011;51003;51.628;6.670;2022-08-01T02:26:15;36.53;;;16.37;;
64595;SDS011;51003;51.628;6.670;2022-08-01T02:29:05;29.93;;;15.93;;
64595;SDS011;51003;51.628;6.670;2022-08-01T02:31:31;23.23;;;15.53;;
64595;SDS011;51003;51.628;6.670;2022-08-01T02:34:04;26.50;;;16.47;;
64595;SDS011;51003;51.628;6.670;2022-08-01T02:36:35;24.37;;;15.70;;
64595;SDS011;51003;51.628;6.670;2022-08-01T02:39:02;25.17;;;15.30;;
64595;SDS011;51003;51.628;6.670;2022-08-01T02:41:29;30.40;;;14.80;;
64595;SDS011;51003;51.628;6.670;2022-08-01T02:43:56;25.30;;;15.00;;
64595;SDS011;51003;51.628;6.670;2022-08-01T02:46:29;29.47;;;15.10;;
64595;SDS011;51003;51.628;6.670;2022-08-01T02:49:00;25.90;;;14.93;;
64595;SDS011;51003;51.628;6.670;2022-08-01T02:51:26;23.43;;;15.00;;
64595;SDS011;51003;51.628;6.670;2022-08-01T02:53:51;20.67;;;13.80;;
64595;SDS011;51003;51.628;6.670;2022-08-01T02:56:18;29.40;;;16.33;;
64595;SDS011;51003;51.628;6.670;2022-08-01T02:58:45;21.87;;;13.93;;
64595;SDS011;51003;51.628;6.670;2022-08-01T03:01:11;30.50;;;14.37;;
64595;SDS011;51003;51.628;6.670;2022-08-01T03:03:38;24.67;;;13.10;;
64595;SDS011;51003;51.628;6.670;2022-08-01T03:06:04;22.77;;;14.07;;
64595;SDS011;51003;51.628;6.670;2022-08-01T03:08:30;20.60;;;12.97;;
64595;SDS011;51003;51.628;6.670;2022-08-01T03:10:56;20.60;;;13.07;;
64595;SDS011;51003;51.628;6.670;2022-08-01T03:13:23;21.93;;;13.10;;
64595;SDS011;51003;51.628;6.670;2022-08-01T03:15:50;23.00;;;12.80;;
64595;SDS011;51003;51.628;6.670;2022-08-01T03:18:16;22.27;;;13.20;;
64595;SDS011;51003;51.628;6.670;2022-08-01T03:20:42;20.67;;;12.20;;
64595;SDS011;51003;51.628;6.670;2022-08-01T03:23:08;23.00;;;12.97;;
64595;SDS011;51003;51.628;6.670;2022-08-01T03:25:36;22.20;;;13.03;;
64595;SDS011;51003;51.628;6.670;2022-08-01T03:28:04;19.67;;;13.03;;
64595;SDS011;51003;51.628;6.670;2022-08-01T03:30:31;21.50;;;13.00;;
64595;SDS011;51003;51.628;6.670;2022-08-01T03:32:57;22.10;;;12.17;;
64595;SDS011;51003;51.628;6.670;2022-08-01T03:35:24;23.13;;;12.80;;
64595;SDS011;51003;51.628;6.670;2022-08-01T03:37:53;24.67;;;13.57;;
64595;SDS011;51003;51.628;6.670;2022-08-01T03:40:21;19.57;;;12.53;;
64595;SDS011;51003;51.628;6.670;2022-08-01T03:42:50;26.57;;;13.13;;
64595;SDS011;51003;51.628;6.670;2022-08-01T03:45:20;25.40;;;12.93;;
64595;SDS011;51003;51.628;6.670;2022-08-01T03:47:48;25.33;;;13.27;;
64595;SDS011;51003;51.628;6.670;2022-08-01T03:50:14;25.27;;;13.30;;
64595;SDS011;51003;51.628;6.670;2022-08-01T03:52:43;25.00;;;13.80;;
64595;SDS011;51003;51.628;6.670;2022-08-01T03:55:10;24.50;;;12.73;;
64595;SDS011;51003;51.628;6.670;2022-08-01T03:57:36;23.47;;;13.77;;
64595;SDS011;51003;51.628;6.670;2022-08-01T04:00:03;30.70;;;13.97;;
64595;SDS011;51003;51.628;6.670;2022-08-01T04:02:32;27.80;;;13.47;;
64595;SDS011;51003;51.628;6.670;2022-08-01T04:04:58;22.40;;;13.90;;
64595;SDS011;51003;51.628;6.670;2022-08-01T04:07:25;24.73;;;13.80;;
64595;SDS011;51003;51.628;6.670;2022-08-01T04:09:51;26.80;;;14.83;;
64595;SDS011;51003;51.628;6.670;2022-08-01T04:12:17;24.83;;;13.37;;
64595;SDS011;51003;51.628;6.670;2022-08-01T04:14:43;24.30;;;14.87;;
64595;SDS011;51003;51.628;6.670;2022-08-01T04:17:08;22.40;;;13.90;;
64595;SDS011;51003;51.628;6.670;2022-08-01T04:19:53;26.00;;;14.70;;
64595;SDS011;51003;51.628;6.670;2022-08-01T04:22:19;29.03;;;14.60;;
64595;SDS011;51003;51.628;6.670;2022-08-01T04:24:47;27.93;;;14.90;;
64595;SDS011;51003;51.628;6.670;2022-08-01T04:27:17;26.17;;;14.73;;
64595;SDS011;51003;51.628;6.670;2022-08-01T04:29:46;22.07;;;14.03;;
64595;SDS011;51003;51.628;6.670;2022-08-01T04:32:15;29.03;;;14.07;;
64595;SDS011;51003;51.628;6.670;2022-08-01T04:34:57;27.10;;;14.73;;
64595;SDS011;51003;51.628;6.670;2022-08-01T04:37:24;29.83;;;14.60;;
64595;SDS011;51003;51.628;6.670;2022-08-01T04:39:50;25.90;;;14.30;;
64595;SDS011;51003;51.628;6.670;2022-08-01T04:42:20;29.87;;;14.07;;
64595;SDS011;51003;51.628;6.670;2022-08-01T04:44:46;22.53;;;12.83;;
64595;SDS011;51003;51.628;6.670;2022-08-01T04:47:12;22.97;;;13.20;;
64595;SDS011;51003;51.628;6.670;2022-08-01T04:49:38;25.57;;;12.67;;
64595;SDS011;51003;51.628;6.670;2022-08-01T04:52:04;23.17;;;13.67;;
64595;SDS011;51003;51.628;6.670;2022-08-01T04:54:32;25.07;;;14.10;;
64595;SDS011;51003;51.628;6.670;2022-08-01T04:56:59;22.30;;;12.80;;
64595;SDS011;51003;51.628;6.670;2022-08-01T04:59:34;27.60;;;13.57;;
64595;SDS011;51003;51.628;6.670;2022-08-01T05:02:09;18.20;;;12.37;;
64595;SDS011;51003;51.628;6.670;2022-08-01T05:04:34;19.53;;;13.03;;
64595;SDS011;51003;51.628;6.670;2022-08-01T05:07:00;21.60;;;11.87;;
64595;SDS011;51003;51.628;6.670;2022-08-01T05:09:26;24.90;;;12.23;;
64595;SDS011;51003;51.628;6.670;2022-08-01T05:11:51;19.20;;;12.10;;
64595;SDS011;51003;51.628;6.670;2022-08-01T05:14:17;18.07;;;12.57;;
64595;SDS011;51003;51.628;6.670;2022-08-01T05:16:42;18.47;;;11.37;;
64595;SDS011;51003;51.628;6.670;2022-08-01T05:19:09;20.30;;;11.60;;
64595;SDS011;51003;51.628;6.670;2022-08-01T05:21:34;21.37;;;12.73;;
64595;SDS011;51003;51.628;6.670;2022-08-01T05:24:00;19.07;;;12.20;;
64595;SDS011;51003;51.628;6.670;2022-08-01T05:26:25;19.20;;;11.90;;
64595;SDS011;51003;51.628;6.670;2022-08-01T05:28:51;15.17;;;11.27;;
64595;SDS011;51003;51.628;6.670;2022-08-01T05:31:16;18.77;;;11.73;;
64595;SDS011;51003;51.628;6.670;2022-08-01T05:33:42;17.63;;;10.40;;
64595;SDS011;51003;51.628;6.670;2022-08-01T05:36:07;20.33;;;11.20;;
64595;SDS011;51003;51.628;6.670;2022-08-01T05:38:32;17.30;;;9.87;;
64595;SDS011;51003;51.628;6.670;2022-08-01T05:40:58;21.30;;;11.83;;
64595;SDS011;51003;51.628;6.670;2022-08-01T05:43:23;17.90;;;10.77;;
64595;SDS011;51003;51.628;6.670;2022-08-01T05:45:49;15.87;;;9.77;;
64595;SDS011;51003;51.628;6.670;2022-08-01T05:48:14;15.80;;;9.77;;
64595;SDS011;51003;51.628;6.670;2022-08-01T05:50:40;14.40;;;9.80;;
64595;SDS011;51003;51.628;6.670;2022-08-01T05:53:05;15.40;;;9.70;;
64595;SDS011;51003;51.628;6.670;2022-08-01T05:55:30;12.97;;;9.37;;
64595;SDS011;51003;51.628;6.670;2022-08-01T05:57:56;12.90;;;8.80;;
64595;SDS011;51003;51.628;6.670;2022-08-01T06:00:21;10.93;;;7.50;;
64595;SDS011;51003;51.628;6.670;2022-08-01T06:02:47;11.90;;;7.70;;
64595;SDS011;51003;51.628;6.670;2022-08-01T06:05:12;10.50;;;6.40;;
64595;SDS011;51003;51.628;6.670;2022-08-01T06:07:40;9.90;;;7.37;;
64595;SDS011;51003;51.628;6.670;2022-08-01T06:10:06;8.20;;;7.00;;
64595;SDS011;51003;51.628;6.670;2022-08-01T06:12:36;9.40;;;7.33;;
64595;SDS011;51003;51.628;6.670;2022-08-01T06:15:03;11.83;;;6.90;;
64595;SDS011;51003;51.628;6.670;2022-08-01T06:17:29;9.70;;;7.57;;
64595;SDS011;51003;51.628;6.670;2022-08-01T06:19:55;11.67;;;7.00;;
64595;SDS011;51003;51.628;6.670;2022-08-01T06:22:37;8.93;;;6.73;;
64595;SDS011;51003;51.628;6.670;2022-08-01T06:25:06;8.63;;;6.70;;
64595;SDS011;51003;51.628;6.670;2022-08-01T06:27:34;8.23;;;6.73;;
64595;SDS011;51003;51.628;6.670;2022-08-01T06:30:00;8.17;;;6.30;;
64595;SDS011;51003;51.628;6.670;2022-08-01T06:32:26;6.80;;;5.80;;
64595;SDS011;51003;51.628;6.670;2022-08-01T06:34:51;6.03;;;5.27;;
64595;SDS011;51003;51.628;6.670;2022-08-01T06:37:17;6.10;;;4.87;;
64595;SDS011;51003;51.628;6.670;2022-08-01T06:39:43;6.73;;;4.87;;
64595;SDS011;51003;51.628;6.670;2022-08-01T06:42:08;5.00;;;4.50;;
64595;SDS011;51003;51.628;6.670;2022-08-01T06:44:34;5.53;;;4.50;;
64595;SDS011;51003;51.628;6.670;2022-08-01T06:47:00;6.27;;;4.37;;
64595;SDS011;51003;51.628;6.670;2022-08-01T06:49:25;5.30;;;4.27;;
64595;SDS011;51003;51.628;6.670;2022-08-01T06:51:50;4.37;;;4.00;;
64595;SDS011;51003;51.628;6.670;2022-08-01T06:54:16;4.63;;;4.23;;
64595;SDS011;51003;51.628;6.670;2022-08-01T06:56:41;4.80;;;4.30;;
64595;SDS011;51003;51.628;6.670;2022-08-01T06:59:07;5.03;;;4.10;;
64595;SDS011;51003;51.628;6.670;2022-08-01T07:01:32;4.60;;;4.20;;
64595;SDS011;51003;51.628;6.670;2022-08-01T07:03:58;4.80;;;4.10;;
64595;SDS011;51003;51.628;6.670;2022-08-01T07:06:23;3.77;;;3.50;;
64595;SDS011;51003;51.628;6.670;2022-08-01T07:08:50;4.30;;;3.67;;
64595;SDS011;51003;51.628;6.670;2022-08-01T07:11:15;3.80;;;3.50;;
64595;SDS011;51003;51.628;6.670;2022-08-01T07:13:41;4.50;;;3.80;;
64595;SDS011;51003;51.628;6.670;2022-08-01T07:16:06;4.23;;;3.80;;
64595;SDS011;51003;51.628;6.670;2022-08-01T07:18:31;3.87;;;3.47;;
64595;SDS011;51003;51.628;6.670;2022-08-01T07:20:57;3.97;;;3.67;;
64595;SDS011;51003;51.628;6.670;2022-08-01T07:23:22;4.23;;;3.83;;
64595;SDS011;51003;51.628;6.670;2022-08-01T07:25:48;3.67;;;3.33;;
64595;SDS011;51003;51.628;6.670;2022-08-01T07:28:14;5.70;;;3.50;;
64595;SDS011;51003;51.628;6.670;2022-08-01T07:30:40;5.33;;;4.17;;
64595;SDS011;51003;51.628;6.670;2022-08-01T08:05:34;5.40;;;3.80;;
64595;SDS011;51003;51.628;6.670;2022-08-01T08:08:04;4.03;;;2.87;;
64595;SDS011;51003;51.628;6.670;2022-08-01T08:10:30;2.83;;;2.63;;
64595;SDS011;51003;51.628;6.670;2022-08-01T08:12:55;2.80;;;2.60;;
64595;SDS011;51003;51.628;6.670;2022-08-01T08:15:21;3.67;;;3.37;;
64595;SDS011;51003;51.628;6.670;2022-08-01T08:17:46;3.20;;;2.90;;
64595;SDS011;51003;51.628;6.670;2022-08-01T08:20:12;3.17;;;2.97;;
64595;SDS011;51003;51.628;6.670;2022-08-01T08:22:37;3.00;;;2.80;;
64595;SDS011;51003;51.628;6.670;2022-08-01T08:25:03;3.03;;;2.77;;
64595;SDS011;51003;51.628;6.670;2022-08-01T08:27:29;2.77;;;2.57;;
64595;SDS011;51003;51.628;6.670;2022-08-01T08:29:55;2.23;;;2.13;;
64595;SDS011;51003;51.628;6.670;2022-08-01T08:32:20;2.43;;;2.33;;
64595;SDS011;51003;51.628;6.670;2022-08-01T08:34:46;3.43;;;2.27;;
64595;SDS011;51003;51.628;6.670;2022-08-01T08:37:11;2.53;;;2.43;;
64595;SDS011;51003;51.628;6.670;2022-08-01T08:39:37;2.47;;;2.33;;
64595;SDS011;51003;51.628;6.670;2022-08-01T08:42:06;3.83;;;2.40;;
64595;SDS011;51003;51.628;6.670;2022-08-01T08:44:31;2.70;;;2.50;;
64595;SDS011;51003;51.628;6.670;2022-08-01T08:46:57;2.30;;;2.20;;
64595;SDS011;51003;51.628;6.670;2022-08-01T08:49:25;1.90;;;1.80;;
64595;SDS011;51003;51.628;6.670;2022-08-01T08:51:51;3.70;;;1.50;;
64595;SDS011;51003;51.628;6.670;2022-08-01T08:54:18;4.80;;;1.40;;
64595;SDS011;51003;51.628;6.670;2022-08-01T08:56:47;1.50;;;1.40;;
64595;SDS011;51003;51.628;6.670;2022-08-01T08:59:13;1.47;;;1.30;;
64595;SDS011;51003;51.628;6.670;2022-08-01T09:01:39;1.47;;;1.37;;
64595;SDS011;51003;51.628;6.670;2022-08-01T09:04:05;1.20;;;1.10;;
64595;SDS011;51003;51.628;6.670;2022-08-01T09:06:31;1.30;;;1.20;;
64595;SDS011;51003;51.628;6.670;2022-08-01T09:08:57;2.40;;;1.30;;
64595;SDS011;51003;51.628;6.670;2022-08-01T09:11:23;1.07;;;0.97;;
64595;SDS011;51003;51.628;6.670;2022-08-01T09:14:05;1.30;;;1.20;;
64595;SDS011;51003;51.628;6.670;2022-08-01T09:16:34;1.57;;;0.97;;
64595;SDS011;51003;51.628;6.670;2022-08-01T09:19:08;0.90;;;0.90;;
64595;SDS011;51003;51.628;6.670;2022-08-01T09:21:36;1.13;;;1.00;;
64595;SDS011;51003;51.628;6.670;2022-08-01T09:24:02;3.23;;;0.73;;
64595;SDS011;51003;51.628;6.670;2022-08-01T09:29:00;0.80;;;0.80;;
64595;SDS011;51003;51.628;6.670;2022-08-01T09:31:27;2.50;;;0.90;;
64595;SDS011;51003;51.628;6.670;2022-08-01T09:33:57;0.80;;;0.80;;
64595;SDS011;51003;51.628;6.670;2022-08-01T09:36:26;0.90;;;0.80;;
64595;SDS011;51003;51.628;6.670;2022-08-01T09:38:53;0.80;;;0.80;;
64595;SDS011;51003;51.628;6.670;2022-08-01T09:41:29;1.83;;;0.90;;
64595;SDS011;51003;51.628;6.670;2022-08-01T09:43:56;0.80;;;0.80;;
64595;SDS011;51003;51.628;6.670;2022-08-01T09:46:22;3.57;;;0.90;;
64595;SDS011;51003;51.628;6.670;2022-08-01T09:48:57;0.80;;;0.80;;
64595;SDS011;51003;51.628;6.670;2022-08-01T09:53:56;0.87;;;0.87;;
64595;SDS011;51003;51.628;6.670;2022-08-01T09:56:22;0.90;;;0.90;;
64595;SDS011;51003;51.628;6.670;2022-08-01T09:58:48;0.80;;;0.80;;
64595;SDS011;51003;51.628;6.670;2022-08-01T10:01:24;0.90;;;0.90;;
64595;SDS011;51003;51.628;6.670;2022-08-01T10:07:12;3.53;;;0.90;;
64595;SDS011;51003;51.628;6.670;2022-08-01T10:09:40;1.20;;;1.10;;
64595;SDS011;51003;51.628;6.670;2022-08-01T10:12:05;1.00;;;1.00;;
64595;SDS011;51003;51.628;6.670;2022-08-01T10:14:31;1.73;;;1.07;;
64595;SDS011;51003;51.628;6.670;2022-08-01T10:16:57;1.10;;;1.00;;
64595;SDS011;51003;51.628;6.670;2022-08-01T10:19:24;1.00;;;1.00;;
64595;SDS011;51003;51.628;6.670;2022-08-01T10:21:51;1.10;;;1.10;;
64595;SDS011;51003;51.628;6.670;2022-08-01T10:24:22;1.40;;;1.10;;
64595;SDS011;51003;51.628;6.670;2022-08-01T10:26:48;1.40;;;1.30;;
64595;SDS011;51003;51.628;6.670;2022-08-01T10:29:17;0.90;;;0.90;;
64595;SDS011;51003;51.628;6.670;2022-08-01T10:31:44;1.00;;;1.00;;
64595;SDS011;51003;51.628;6.670;2022-08-01T10:34:09;1.00;;;1.00;;
64595;SDS011;51003;51.628;6.670;2022-08-01T10:36:36;1.33;;;1.20;;
64595;SDS011;51003;51.628;6.670;2022-08-01T10:39:04;1.10;;;1.10;;
64595;SDS011;51003;51.628;6.670;2022-08-01T10:41:30;2.50;;;1.10;;
64595;SDS011;51003;51.628;6.670;2022-08-01T10:43:59;1.40;;;1.30;;
64595;SDS011;51003;51.628;6.670;2022-08-01T10:46:34;1.30;;;1.20;;
64595;SDS011;51003;51.628;6.670;2022-08-01T10:49:07;1.20;;;1.20;;
64595;SDS011;51003;51.628;6.670;2022-08-01T10:51:36;1.20;;;1.10;;
64595;SDS011;51003;51.628;6.670;2022-08-01T10:54:05;1.10;;;1.10;;
64595;SDS011;51003;51.628;6.670;2022-08-01T10:56:47;1.10;;;1.10;;
64595;SDS011;51003;51.628;6.670;2022-08-01T10:59:15;1.20;;;1.20;;
64595;SDS011;51003;51.628;6.670;2022-08-01T11:01:54;1.20;;;1.10;;
64595;SDS011;51003;51.628;6.670;2022-08-01T11:04:24;1.27;;;1.20;;
64595;SDS011;51003;51.628;6.670;2022-08-01T11:07:03;1.83;;;1.30;;
64595;SDS011;51003;51.628;6.670;2022-08-01T11:09:31;1.40;;;1.30;;
64595;SDS011;51003;51.628;6.670;2022-08-01T11:17:44;1.43;;;1.30;;
64595;SDS011;51003;51.628;6.670;2022-08-01T11:23:46;1.80;;;1.70;;
64595;SDS011;51003;51.628;6.670;2022-08-01T11:32:58;1.30;;;1.30;;
64595;SDS011;51003;51.628;6.670;2022-08-01T11:35:24;1.63;;;1.53;;
64595;SDS011;51003;51.628;6.670;2022-08-01T11:37:51;1.77;;;1.30;;
64595;SDS011;51003;51.628;6.670;2022-08-01T11:40:27;1.30;;;1.30;;
64595;SDS011;51003;51.628;6.670;2022-08-01T11:43:35;1.27;;;1.27;;
64595;SDS011;51003;51.628;6.670;2022-08-01T11:48:23;1.50;;;1.40;;
64595;SDS011;51003;51.628;6.670;2022-08-01T11:50:50;1.40;;;1.30;;
64595;SDS011;51003;51.628;6.670;2022-08-01T11:53:16;1.40;;;1.30;;
64595;SDS011;51003;51.628;6.670;2022-08-01T11:55:53;1.87;;;1.70;;
64595;SDS011;51003;51.628;6.670;2022-08-01T11:58:25;1.60;;;1.50;;
64595;SDS011;51003;51.628;6.670;2022-08-01T12:00:55;3.60;;;1.93;;
64595;SDS011;51003;51.628;6.670;2022-08-01T12:44:14;1.90;;;1.80;;
64595;SDS011;51003;51.628;6.670;2022-08-01T13:24:24;3.20;;;2.10;;
64595;SDS011;51003;51.628;6.670;2022-08-01T13:30:24;2.10;;;2.00;;
64595;SDS011;51003;51.628;6.670;2022-08-01T13:42:56;2.27;;;2.17;;
64595;SDS011;51003;51.628;6.670;2022-08-01T13:55:35;1.80;;;1.70;;
64595;SDS011;51003;51.628;6.670;2022-08-01T14:00:48;2.00;;;1.90;;
64595;SDS011;51003;51.628;6.670;2022-08-01T14:03:14;4.17;;;1.97;;
64595;SDS011;51003;51.628;6.670;2022-08-01T14:05:41;2.30;;;2.20;;
64595;SDS011;51003;51.628;6.670;2022-08-01T14:08:07;1.70;;;1.60;;
64595;SDS011;51003;51.628;6.670;2022-08-01T14:10:33;1.80;;;1.70;;
64595;SDS011;51003;51.628;6.670;2022-08-01T14:12:59;1.97;;;1.60;;
64595;SDS011;51003;51.628;6.670;2022-08-01T14:15:24;1.70;;;1.60;;
64595;SDS011;51003;51.628;6.670;2022-08-01T14:17:51;1.40;;;1.30;;
64595;SDS011;51003;51.628;6.670;2022-08-01T14:20:17;1.40;;;1.30;;
64595;SDS011;51003;51.628;6.670;2022-08-01T14:22:45;1.53;;;1.43;;
64595;SDS011;51003;51.628;6.670;2022-08-01T14:25:10;1.70;;;1.60;;
64595;SDS011;51003;51.628;6.670;2022-08-01T14:27:36;1.50;;;1.40;;
64595;SDS011;51003;51.628;6.670;2022-08-01T14:30:02;1.67;;;1.57;;
64595;SDS011;51003;51.628;6.670;2022-08-01T14:32:28;2.30;;;1.50;;
64595;SDS011;51003;51.628;6.670;2022-08-01T14:34:54;1.80;;;1.70;;
64595;SDS011;51003;51.628;6.670;2022-08-01T14:37:19;1.90;;;1.80;;
64595;SDS011;51003;51.628;6.670;2022-08-01T14:39:44;5.23;;;2.10;;
64595;SDS011;51003;51.628;6.670;2022-08-01T14:42:10;4.80;;;2.20;;
64595;SDS011;51003;51.628;6.670;2022-08-01T14:44:35;3.83;;;2.50;;
64595;SDS011;51003;51.628;6.670;2022-08-01T14:47:00;4.03;;;2.30;;
64595;SDS011;51003;51.628;6.670;2022-08-01T14:49:26;2.20;;;2.00;;
64595;SDS011;51003;51.628;6.670;2022-08-01T14:51:51;2.20;;;2.10;;
64595;SDS011;51003;51.628;6.670;2022-08-01T14:54:17;1.63;;;1.53;;
64595;SDS011;51003;51.628;6.670;2022-08-01T14:56:42;1.83;;;1.73;;
64595;SDS011;51003;51.628;6.670;2022-08-01T14:59:07;2.17;;;2.07;;
64595;SDS011;51003;51.628;6.670;2022-08-01T15:01:33;1.87;;;1.77;;
64595;SDS011;51003;51.628;6.670;2022-08-01T15:03:58;2.53;;;1.93;;
64595;SDS011;51003;51.628;6.670;2022-08-01T15:06:23;2.47;;;2.00;;
64595;SDS011;51003;51.628;6.670;2022-08-01T15:08:49;5.37;;;2.20;;
64595;SDS011;51003;51.628;6.670;2022-08-01T15:11:14;2.40;;;1.90;;
64595;SDS011;51003;51.628;6.670;2022-08-01T15:13:40;1.87;;;1.77;;
64595;SDS011;51003;51.628;6.670;2022-08-01T15:16:05;5.83;;;1.70;;
64595;SDS011;51003;51.628;6.670;2022-08-01T15:18:30;2.27;;;1.80;;
64595;SDS011;51003;51.628;6.670;2022-08-01T15:20:56;2.40;;;1.70;;
64595;SDS011;51003;51.628;6.670;2022-08-01T15:23:22;1.83;;;1.50;;
64595;SDS011;51003;51.628;6.670;2022-08-01T15:25:47;1.67;;;1.57;;
64595;SDS011;51003;51.628;6.670;2022-08-01T15:28:13;2.50;;;1.97;;
64595;SDS011;51003;51.628;6.670;2022-08-01T15:30:39;3.03;;;2.00;;
64595;SDS011;51003;51.628;6.670;2022-08-01T15:36:28;2.30;;;2.10;;
64595;SDS011;51003;51.628;6.670;2022-08-01T15:39:02;2.40;;;2.20;;
64595;SDS011;51003;51.628;6.670;2022-08-01T15:41:28;3.00;;;2.40;;
64595;SDS011;51003;51.628;6.670;2022-08-01T15:43:53;2.30;;;2.20;;
64595;SDS011;51003;51.628;6.670;2022-08-01T15:46:18;2.40;;;2.20;;
64595;SDS011;51003;51.628;6.670;2022-08-01T15:48:49;3.93;;;2.53;;
64595;SDS011;51003;51.628;6.670;2022-08-01T15:51:14;2.60;;;2.40;;
64595;SDS011;51003;51.628;6.670;2022-08-01T15:53:40;2.87;;;2.67;;
64595;SDS011;51003;51.628;6.670;2022-08-01T16:30:27;2.40;;;2.30;;
64595;SDS011;51003;51.628;6.670;2022-08-01T16:32:53;2.43;;;2.23;;
64595;SDS011;51003;51.628;6.670;2022-08-01T16:35:18;2.40;;;2.00;;
64595;SDS011;51003;51.628;6.670;2022-08-01T16:37:44;6.67;;;2.20;;
64595;SDS011;51003;51.628;6.670;2022-08-01T16:40:10;2.13;;;2.03;;
64595;SDS011;51003;51.628;6.670;2022-08-01T16:42:36;4.17;;;2.40;;
64595;SDS011;51003;51.628;6.670;2022-08-01T16:45:01;3.33;;;1.97;;
64595;SDS011;51003;51.628;6.670;2022-08-01T16:47:27;2.80;;;2.20;;
64595;SDS011;51003;51.628;6.670;2022-08-01T16:49:52;2.30;;;1.87;;
64595;SDS011;51003;51.628;6.670;2022-08-01T16:52:18;5.17;;;2.30;;
64595;SDS011;51003;51.628;6.670;2022-08-01T16:54:43;3.50;;;2.40;;
64595;SDS011;51003;51.628;6.670;2022-08-01T16:57:09;5.23;;;2.50;;
64595;SDS011;51003;51.628;6.670;2022-08-01T16:59:35;4.17;;;2.13;;
64595;SDS011;51003;51.628;6.670;2022-08-01T17:02:01;4.90;;;2.43;;
64595;SDS011;51003;51.628;6.670;2022-08-01T17:04:27;2.33;;;2.07;;
64595;SDS011;51003;51.628;6.670;2022-08-01T17:06:53;2.37;;;2.27;;
64595;SDS011;51003;51.628;6.670;2022-08-01T17:09:19;11.40;;;2.50;;
64595;SDS011;51003;51.628;6.670;2022-08-01T17:11:44;3.30;;;2.40;;
64595;SDS011;51003;51.628;6.670;2022-08-01T17:14:10;3.83;;;2.33;;
64595;SDS011;51003;51.628;6.670;2022-08-01T17:20:01;4.43;;;2.53;;
64595;SDS011;51003;51.628;6.670;2022-08-01T17:25:53;3.63;;;2.73;;
64595;SDS011;51003;51.628;6.670;2022-08-01T17:41:28;4.07;;;2.60;;
64595;SDS011;51003;51.628;6.670;2022-08-01T17:43:54;4.73;;;2.60;;
64595;SDS011;51003;51.628;6.670;2022-08-01T17:46:19;3.20;;;2.30;;
64595;SDS011;51003;51.628;6.670;2022-08-01T17:52:21;2.43;;;2.23;;
64595;SDS011;51003;51.628;6.670;2022-08-01T17:55:01;4.83;;;2.80;;
64595;SDS011;51003;51.628;6.670;2022-08-01T18:08:10;2.97;;;2.17;;
64595;SDS011;51003;51.628;6.670;2022-08-01T18:10:36;4.20;;;2.17;;
64595;SDS011;51003;51.628;6.670;2022-08-01T18:13:01;2.60;;;2.40;;
64595;SDS011;51003;51.628;6.670;2022-08-01T18:15:29;3.03;;;2.50;;
64595;SDS011;51003;51.628;6.670;2022-08-01T18:18:56;4.40;;;2.33;;
64595;SDS011;51003;51.628;6.670;2022-08-01T18:21:21;2.47;;;2.13;;
64595;SDS011;51003;51.628;6.670;2022-08-01T18:23:47;2.73;;;2.40;;
64595;SDS011;51003;51.628;6.670;2022-08-01T18:26:13;3.23;;;2.40;;
64595;SDS011;51003;51.628;6.670;2022-08-01T18:31:25;3.00;;;2.03;;
64595;SDS011;51003;51.628;6.670;2022-08-01T18:33:50;4.53;;;2.23;;
64595;SDS011;51003;51.628;6.670;2022-08-01T18:36:16;2.73;;;2.47;;
64595;SDS011;51003;51.628;6.670;2022-08-01T18:38:42;3.73;;;2.50;;
64595;SDS011;51003;51.628;6.670;2022-08-01T18:41:07;2.93;;;2.23;;
64595;SDS011;51003;51.628;6.670;2022-08-01T18:43:34;5.40;;;2.57;;
64595;SDS011;51003;51.628;6.670;2022-08-01T18:49:24;3.50;;;3.20;;
64595;SDS011;51003;51.628;6.670;2022-08-01T18:51:50;4.67;;;3.13;;
64595;SDS011;51003;51.628;6.670;2022-08-01T18:54:15;3.03;;;2.70;;